Time;durP1;ratioP1;P1;durP2;ratioP2;P2;SDS_P1;SDS_P2;PMS_P1;PMS_P2;Temp;Humidity;BMP_temperature;BMP_pressure;BME280_temperature;BME280_humidity;BME280_pressure;Samples;Min_cycle;Max_cycle;Signal;HPM_P1;HPM_P2
2023/05/17 00:02:02;;;;;;;15.68;5.93;;;10.20;99.90;;;;;;5060519;28;20735;-72
2023/05/17 00:04:28;;;;;;;20.40;6.25;;;10.10;99.90;;;;;;5115811;27;20717;-73
2023/05/17 00:06:54;;;;;;;14.50;4.93;;;10.10;99.90;;;;;;5099850;27;20035;-73
2023/05/17 00:09:20;;;;;;;19.33;4.70;;;10.00;99.90;;;;;;5072327;28;20035;-73
2023/05/17 00:11:45;;;;;;;19.35;4.88;;;9.90;99.90;;;;;;5085164;28;20402;-72
2023/05/17 00:14:11;;;;;;;16.42;4.30;;;9.90;99.90;;;;;;5085554;28;20112;-73
2023/05/17 00:16:41;;;;;;;17.95;4.70;;;9.80;99.90;;;;;;5103822;28;20100;-72
2023/05/17 00:19:09;;;;;;;15.93;4.50;;;9.80;99.90;;;;;;5102354;28;20036;-73
2023/05/17 00:21:35;;;;;;;17.17;4.82;;;9.70;99.90;;;;;;5098542;28;20046;-73
2023/05/17 00:24:00;;;;;;;15.40;4.20;;;9.70;99.90;;;;;;5118590;27;20389;-73
2023/05/17 00:26:26;;;;;;;20.45;5.18;;;9.60;99.90;;;;;;5082840;28;20051;-73
2023/05/17 00:28:52;;;;;;;19.05;5.32;;;9.60;99.90;;;;;;5067961;28;20392;-73
2023/05/17 00:31:18;;;;;;;14.75;4.30;;;9.50;99.90;;;;;;5083695;28;20064;-73
2023/05/17 00:33:45;;;;;;;17.85;4.57;;;9.50;99.90;;;;;;5086063;28;20065;-73
2023/05/17 00:36:10;;;;;;;14.18;4.45;;;9.40;99.90;;;;;;5100001;28;20044;-73
2023/05/17 00:38:36;;;;;;;21.23;4.88;;;9.30;99.90;;;;;;5088819;28;20116;-73
2023/05/17 00:41:02;;;;;;;19.08;5.05;;;9.30;99.90;;;;;;5082962;28;20067;-72
2023/05/17 00:43:28;;;;;;;18.90;5.50;;;9.20;99.90;;;;;;5102207;28;20486;-73
2023/05/17 00:45:53;;;;;;;13.73;3.80;;;9.10;99.90;;;;;;5101391;28;20047;-73
2023/05/17 00:48:24;;;;;;;19.85;4.47;;;9.00;99.90;;;;;;5101773;27;20028;-73
2023/05/17 00:50:54;;;;;;;21.55;5.32;;;9.00;99.90;;;;;;5072375;28;20462;-73
2023/05/17 00:53:21;;;;;;;17.73;4.75;;;9.00;99.90;;;;;;5080436;28;20075;-72
2023/05/17 00:55:48;;;;;;;14.85;4.43;;;8.90;99.90;;;;;;5102923;27;20055;-73
2023/05/17 00:58:14;;;;;;;20.08;5.43;;;8.80;99.90;;;;;;5099254;28;20122;-73
2023/05/17 01:00:41;;;;;;;15.73;4.90;;;8.80;99.90;;;;;;5084330;28;20063;-73
2023/05/17 01:03:06;;;;;;;17.02;4.13;;;8.80;99.90;;;;;;5096817;28;20039;-73
2023/05/17 01:05:33;;;;;;;16.00;4.38;;;8.70;99.90;;;;;;5118669;27;20116;-73
2023/05/17 01:07:58;;;;;;;17.42;4.13;;;8.70;99.90;;;;;;5082980;28;20078;-73
2023/05/17 01:10:53;;;;;;;16.63;4.20;;;8.60;99.90;;;;;;5102541;28;20437;-72
2023/05/17 01:13:26;;;;;;;20.02;4.80;;;8.60;99.90;;;;;;5117709;27;20051;-72
2023/05/17 01:16:21;;;;;;;16.17;5.07;;;8.50;99.90;;;;;;5085181;28;20054;-73
2023/05/17 01:19:08;;;;;;;18.80;4.40;;;8.50;99.90;;;;;;5073196;27;20040;-73
2023/05/17 01:21:42;;;;;;;19.10;5.30;;;8.50;99.90;;;;;;5091665;28;20040;-73
2023/05/17 01:24:38;;;;;;;23.52;5.40;;;8.50;99.90;;;;;;5081778;28;20383;-73
2023/05/17 01:27:06;;;;;;;21.60;4.55;;;8.50;99.90;;;;;;5098976;28;20051;-73
2023/05/17 01:29:34;;;;;;;15.63;4.10;;;8.50;99.90;;;;;;5099595;28;20054;-73
2023/05/17 01:32:05;;;;;;;18.90;4.47;;;8.50;99.90;;;;;;5134328;27;20494;-73
2023/05/17 01:34:30;;;;;;;15.98;4.32;;;8.50;99.90;;;;;;5132419;27;20413;-73
2023/05/17 01:36:57;;;;;;;17.35;4.47;;;8.40;99.90;;;;;;5101720;28;20032;-73
2023/05/17 01:39:22;;;;;;;16.67;4.00;;;8.40;99.90;;;;;;5085733;28;20047;-73
2023/05/17 01:42:16;;;;;;;19.67;4.70;;;8.40;99.90;;;;;;5075438;28;20043;-73
2023/05/17 01:44:57;;;;;;;21.33;5.00;;;8.40;99.90;;;;;;5081749;28;20031;-73
2023/05/17 01:47:50;;;;;;;19.92;5.07;;;8.30;99.90;;;;;;5118107;27;20047;-72
2023/05/17 01:50:22;;;;;;;18.13;4.55;;;8.30;99.90;;;;;;5100008;28;20139;-73
2023/05/17 01:53:17;;;;;;;19.55;4.72;;;8.20;99.90;;;;;;5081586;28;20043;-73
2023/05/17 01:55:51;;;;;;;17.10;5.28;;;8.20;99.90;;;;;;5074306;28;20048;-73
2023/05/17 01:58:23;;;;;;;17.52;4.60;;;8.10;99.90;;;;;;5092353;28;20036;-73
2023/05/17 02:00:52;;;;;;;16.45;4.10;;;8.10;99.90;;;;;;5100960;28;20059;-73
2023/05/17 02:03:22;;;;;;;15.90;4.22;;;8.00;99.90;;;;;;5083796;28;20084;-73
2023/05/17 02:05:47;;;;;;;15.23;4.25;;;8.00;99.90;;;;;;5074014;28;20048;-72
2023/05/17 02:08:13;;;;;;;13.88;4.13;;;8.10;99.90;;;;;;5100797;28;20042;-73
2023/05/17 02:10:39;;;;;;;20.63;4.63;;;8.00;99.90;;;;;;5107029;28;20054;-73
2023/05/17 02:13:05;;;;;;;17.38;4.70;;;8.00;99.90;;;;;;5088357;28;20565;-73
2023/05/17 02:15:31;;;;;;;19.70;5.00;;;8.10;99.90;;;;;;5117335;27;20040;-73
2023/05/17 02:17:57;;;;;;;22.30;4.88;;;8.10;99.90;;;;;;5086378;28;20047;-73
2023/05/17 02:20:23;;;;;;;17.02;5.47;;;8.10;99.90;;;;;;5082979;28;20049;-73
2023/05/17 02:22:48;;;;;;;22.05;5.35;;;8.00;99.90;;;;;;5086418;28;20206;-72
2023/05/17 02:25:14;;;;;;;20.45;5.32;;;8.00;99.90;;;;;;5087603;28;20066;-73
2023/05/17 02:27:40;;;;;;;16.77;4.90;;;8.00;99.90;;;;;;5069500;27;20055;-73
2023/05/17 02:30:07;;;;;;;19.05;5.57;;;8.00;99.90;;;;;;5098523;28;20090;-73
2023/05/17 02:32:32;;;;;;;21.10;4.90;;;7.90;99.90;;;;;;5100620;28;20906;-73
2023/05/17 02:34:58;;;;;;;19.48;4.78;;;7.90;99.90;;;;;;5104943;28;20113;-73
2023/05/17 02:37:25;;;;;;;17.70;5.13;;;7.80;99.90;;;;;;5100267;28;20151;-72
2023/05/17 02:39:53;;;;;;;16.48;4.25;;;7.80;99.90;;;;;;5124004;27;20061;-73
2023/05/17 02:42:19;;;;;;;14.57;3.70;;;7.80;99.90;;;;;;5106609;28;20498;-72
2023/05/17 02:44:47;;;;;;;17.83;4.55;;;7.70;99.90;;;;;;5071946;28;20035;-73
2023/05/17 02:47:12;;;;;;;19.33;5.05;;;7.70;99.90;;;;;;5094370;28;20122;-73
2023/05/17 02:49:38;;;;;;;20.63;4.82;;;7.70;99.90;;;;;;5096964;27;20177;-73
2023/05/17 02:52:04;;;;;;;16.75;4.28;;;7.70;99.90;;;;;;5067084;28;20048;-73
2023/05/17 02:54:30;;;;;;;17.65;4.40;;;7.70;99.90;;;;;;5059673;28;20050;-72
2023/05/17 02:56:56;;;;;;;23.25;5.45;;;7.70;99.90;;;;;;5134651;27;20039;-73
2023/05/17 02:59:21;;;;;;;15.40;4.80;;;7.60;99.90;;;;;;5068598;28;20142;-72
2023/05/17 03:01:48;;;;;;;24.00;4.68;;;7.60;99.90;;;;;;5091879;28;20039;-73
2023/05/17 03:04:19;;;;;;;16.27;4.40;;;7.50;99.90;;;;;;5106473;28;20114;-73
2023/05/17 03:06:44;;;;;;;18.80;4.88;;;7.50;99.90;;;;;;5080875;28;20060;-73
2023/05/17 03:09:10;;;;;;;21.33;4.70;;;7.40;99.90;;;;;;5105506;28;20036;-73
2023/05/17 03:11:36;;;;;;;13.93;4.15;;;7.40;99.90;;;;;;5085430;28;20158;-73
2023/05/17 03:14:02;;;;;;;17.42;4.03;;;7.40;99.90;;;;;;5104081;28;20131;-73
2023/05/17 03:16:31;;;;;;;17.40;4.60;;;7.30;99.90;;;;;;5086604;28;20039;-73
2023/05/17 03:18:56;;;;;;;21.65;4.50;;;7.40;99.90;;;;;;5103964;28;20079;-73
2023/05/17 03:21:22;;;;;;;14.95;4.00;;;7.40;99.90;;;;;;5100466;28;20147;-73
2023/05/17 03:23:48;;;;;;;18.27;4.88;;;7.40;99.90;;;;;;5086513;28;20040;-73
2023/05/17 03:26:13;;;;;;;17.17;4.18;;;7.40;99.90;;;;;;5087382;28;20082;-73
2023/05/17 03:28:39;;;;;;;20.13;4.57;;;7.40;99.90;;;;;;5066606;28;20089;-72
2023/05/17 03:31:05;;;;;;;15.95;4.35;;;7.50;99.90;;;;;;5085104;28;20510;-73
2023/05/17 03:33:31;;;;;;;20.75;4.30;;;7.50;99.90;;;;;;5068447;28;20040;-72
2023/05/17 03:35:57;;;;;;;15.82;4.38;;;7.50;99.90;;;;;;5085794;28;20044;-73
2023/05/17 03:38:22;;;;;;;19.73;4.75;;;7.60;99.90;;;;;;5083958;28;20055;-73
2023/05/17 03:40:53;;;;;;;16.58;4.13;;;7.60;99.90;;;;;;5088033;28;20040;-73
2023/05/17 03:43:19;;;;;;;23.80;5.18;;;7.60;99.90;;;;;;5067305;28;20039;-73
2023/05/17 03:45:45;;;;;;;16.80;4.00;;;7.70;99.90;;;;;;5136781;27;20130;-73
2023/05/17 03:48:11;;;;;;;19.77;3.65;;;7.70;99.90;;;;;;5087338;27;20340;-73
2023/05/17 03:50:39;;;;;;;17.67;3.83;;;7.70;99.90;;;;;;5073172;28;20039;-73
2023/05/17 03:53:05;;;;;;;13.73;3.63;;;7.80;99.90;;;;;;5067412;28;20036;-73
2023/05/17 03:55:31;;;;;;;17.20;3.80;;;7.80;99.90;;;;;;5120111;27;20043;-73
2023/05/17 03:58:00;;;;;;;14.95;4.05;;;7.70;99.90;;;;;;5082066;28;20536;-73
2023/05/17 04:00:26;;;;;;;18.55;4.05;;;7.70;99.90;;;;;;5098510;28;20060;-73
2023/05/17 04:02:51;;;;;;;18.05;4.50;;;7.70;99.90;;;;;;5086403;28;20382;-73
2023/05/17 04:05:18;;;;;;;16.38;3.80;;;7.60;99.90;;;;;;5104527;27;20052;-73
2023/05/17 04:07:43;;;;;;;18.95;4.90;;;7.60;99.90;;;;;;5073000;28;20151;-73
2023/05/17 04:10:10;;;;;;;17.27;4.03;;;7.60;99.90;;;;;;5076152;28;20550;-73
2023/05/17 04:12:36;;;;;;;17.00;3.72;;;7.60;99.90;;;;;;5109616;27;20058;-73
2023/05/17 04:15:02;;;;;;;19.40;4.45;;;7.50;99.90;;;;;;5081459;28;20066;-73
2023/05/17 04:17:28;;;;;;;14.50;3.60;;;7.50;99.90;;;;;;5099646;28;20094;-73
2023/05/17 04:19:54;;;;;;;11.10;3.45;;;7.40;99.90;;;;;;5070201;28;20071;-73
2023/05/17 04:22:23;;;;;;;12.52;3.80;;;7.40;99.90;;;;;;5105242;28;20123;-73
2023/05/17 04:24:48;;;;;;;15.85;3.78;;;7.40;99.90;;;;;;5103111;28;20058;-73
2023/05/17 04:27:14;;;;;;;20.92;4.72;;;7.40;99.90;;;;;;5099727;28;20044;-73
2023/05/17 04:29:40;;;;;;;16.25;3.58;;;7.40;99.90;;;;;;5067876;28;20068;-73
2023/05/17 04:32:07;;;;;;;19.42;4.32;;;7.50;99.90;;;;;;5083588;28;20046;-73
2023/05/17 04:34:33;;;;;;;13.98;3.90;;;7.50;99.90;;;;;;5065609;28;20109;-73
2023/05/17 04:36:58;;;;;;;16.98;3.85;;;7.60;99.90;;;;;;5100158;28;20055;-73
2023/05/17 04:39:24;;;;;;;13.68;2.83;;;7.60;99.90;;;;;;5069211;28;20443;-73
2023/05/17 04:41:53;;;;;;;13.52;3.20;;;7.70;99.90;;;;;;5082477;28;21569;-73
2023/05/17 04:44:19;;;;;;;11.48;3.30;;;7.70;99.90;;;;;;5103399;28;20502;-73
2023/05/17 04:46:45;;;;;;;14.15;3.33;;;7.80;99.90;;;;;;5103345;28;20097;-73
2023/05/17 04:49:11;;;;;;;11.40;2.58;;;7.80;99.90;;;;;;5086214;28;20048;-73
2023/05/17 04:51:36;;;;;;;11.88;2.45;;;7.90;99.90;;;;;;5116212;27;20032;-73
2023/05/17 04:54:05;;;;;;;12.18;2.80;;;7.90;99.90;;;;;;5084286;28;20536;-72
2023/05/17 04:56:35;;;;;;;11.48;2.30;;;7.90;99.90;;;;;;5071667;28;20383;-72
2023/05/17 04:59:02;;;;;;;13.00;2.67;;;8.00;99.90;;;;;;5100930;28;20548;-72
2023/05/17 05:01:31;;;;;;;10.50;2.67;;;8.10;99.90;;;;;;5085395;28;20054;-73
2023/05/17 05:03:58;;;;;;;13.05;2.13;;;8.10;99.90;;;;;;5132048;27;20136;-73
2023/05/17 05:06:23;;;;;;;12.80;3.25;;;8.20;99.90;;;;;;5067847;28;20098;-73
2023/05/17 05:08:50;;;;;;;11.05;1.92;;;8.30;99.90;;;;;;5094875;28;20128;-73
2023/05/17 05:11:16;;;;;;;9.77;2.28;;;8.30;99.90;;;;;;5093104;28;20049;-71
2023/05/17 05:13:45;;;;;;;9.10;2.38;;;8.40;99.90;;;;;;5084043;28;20043;-72
2023/05/17 05:16:10;;;;;;;13.30;2.80;;;8.50;99.90;;;;;;5083897;28;20057;-72
2023/05/17 05:18:36;;;;;;;17.23;3.30;;;8.50;99.90;;;;;;5085373;28;20043;-73
2023/05/17 05:21:02;;;;;;;12.88;2.58;;;8.60;99.90;;;;;;5120030;27;20559;-72
2023/05/17 05:23:28;;;;;;;11.93;2.70;;;8.70;99.90;;;;;;5085411;28;20097;-72
2023/05/17 05:25:54;;;;;;;10.45;2.88;;;8.70;99.90;;;;;;5082440;28;20073;-79
2023/05/17 05:28:19;;;;;;;7.40;1.55;;;8.70;99.90;;;;;;5085404;28;20387;-79
2023/05/17 05:30:45;;;;;;;6.90;1.70;;;8.80;99.90;;;;;;5067599;28;20418;-80
2023/05/17 05:33:11;;;;;;;9.25;1.70;;;8.70;99.90;;;;;;5084407;28;20046;-78
2023/05/17 05:35:36;;;;;;;11.55;1.95;;;8.80;99.90;;;;;;5100588;28;20044;-78
2023/05/17 05:38:03;;;;;;;9.00;1.83;;;8.70;99.90;;;;;;5097602;28;20047;-79
2023/05/17 05:40:29;;;;;;;8.15;1.88;;;8.70;99.90;;;;;;5112053;27;20494;-79
2023/05/17 05:42:55;;;;;;;10.15;1.98;;;8.70;99.90;;;;;;5085749;28;20054;-80
2023/05/17 05:45:23;;;;;;;11.48;2.15;;;8.70;99.90;;;;;;5065724;28;20043;-72
2023/05/17 05:47:49;;;;;;;9.25;2.60;;;8.70;99.90;;;;;;5085656;28;20401;-73
2023/05/17 05:50:15;;;;;;;7.78;2.40;;;8.80;99.90;;;;;;5101808;28;20047;-72
2023/05/17 05:52:43;;;;;;;11.05;2.30;;;8.80;99.90;;;;;;5103108;28;20043;-72
2023/05/17 05:55:09;;;;;;;9.40;2.20;;;8.80;99.90;;;;;;5080955;28;20047;-72
2023/05/17 05:57:35;;;;;;;10.93;2.20;;;8.80;99.90;;;;;;5048562;28;20036;-72
2023/05/17 06:00:01;;;;;;;8.40;2.03;;;8.70;99.90;;;;;;5067341;28;20071;-72
2023/05/17 06:02:27;;;;;;;7.85;2.03;;;8.80;99.90;;;;;;5101796;28;20089;-73
2023/05/17 06:04:53;;;;;;;9.27;2.10;;;8.90;99.90;;;;;;5094470;28;20043;-72
2023/05/17 06:07:19;;;;;;;8.27;1.92;;;8.90;99.90;;;;;;5067030;28;20065;-73
2023/05/17 06:09:45;;;;;;;9.48;1.90;;;8.90;99.90;;;;;;5066179;28;20047;-73
2023/05/17 06:12:10;;;;;;;10.23;1.90;;;9.00;99.90;;;;;;5042981;28;20376;-72
2023/05/17 06:14:37;;;;;;;10.00;1.77;;;9.00;99.90;;;;;;5081207;28;20097;-73
2023/05/17 06:17:03;;;;;;;12.75;2.08;;;9.00;99.90;;;;;;5097408;28;20048;-73
2023/05/17 06:19:29;;;;;;;11.52;2.15;;;9.10;99.90;;;;;;5090439;28;20624;-74
2023/05/17 06:21:55;;;;;;;9.50;1.98;;;9.10;99.90;;;;;;5076148;28;20112;-74
2023/05/17 06:24:24;;;;;;;10.95;2.13;;;9.10;99.90;;;;;;5063073;28;20581;-74
2023/05/17 06:26:50;;;;;;;8.45;1.80;;;9.20;99.90;;;;;;5057186;28;20119;-73
2023/05/17 06:29:16;;;;;;;8.35;1.92;;;9.20;99.90;;;;;;5057264;28;20052;-74
2023/05/17 06:31:45;;;;;;;10.35;2.00;;;9.10;99.90;;;;;;5077492;28;20042;-74
2023/05/17 06:34:10;;;;;;;10.30;2.75;;;9.30;99.90;;;;;;5099356;28;20352;-74
2023/05/17 06:36:36;;;;;;;10.95;1.95;;;9.30;99.90;;;;;;5078205;28;20558;-73
2023/05/17 06:39:02;;;;;;;12.90;2.42;;;9.40;99.90;;;;;;5093561;28;20050;-74
2023/05/17 06:41:28;;;;;;;7.68;1.80;;;9.40;99.90;;;;;;5110436;27;20063;-73
2023/05/17 06:43:53;;;;;;;11.85;2.60;;;9.50;99.90;;;;;;5114574;28;20043;-74
2023/05/17 06:46:19;;;;;;;9.40;2.30;;;9.40;99.90;;;;;;5099350;28;20035;-74
2023/05/17 06:48:45;;;;;;;11.73;2.50;;;9.50;99.90;;;;;;5065494;28;20074;-74
2023/05/17 06:51:11;;;;;;;10.70;2.03;;;9.50;99.90;;;;;;5116194;27;21072;-74
2023/05/17 06:53:37;;;;;;;13.35;3.08;;;9.60;99.90;;;;;;5079581;27;20490;-74
2023/05/17 06:56:02;;;;;;;11.95;2.25;;;9.70;99.90;;;;;;5084484;28;20048;-73
2023/05/17 06:58:28;;;;;;;11.85;3.05;;;9.80;99.90;;;;;;5084168;28;20488;-74
2023/05/17 07:00:54;;;;;;;13.18;3.30;;;9.90;99.90;;;;;;5054686;28;20052;-74
2023/05/17 07:03:20;;;;;;;10.30;2.40;;;9.90;99.90;;;;;;5086305;28;20522;-74
2023/05/17 07:05:46;;;;;;;14.20;2.83;;;9.90;99.90;;;;;;5079238;28;20119;-73
2023/05/17 07:08:13;;;;;;;11.77;2.53;;;9.90;99.90;;;;;;5136588;27;20243;-73
2023/05/17 07:10:39;;;;;;;10.20;2.13;;;9.90;99.90;;;;;;5063160;28;20795;-74
2023/05/17 07:13:05;;;;;;;10.43;2.70;;;10.00;99.90;;;;;;5102346;28;20086;-73
2023/05/17 07:15:31;;;;;;;12.82;3.20;;;10.00;99.90;;;;;;5134163;27;20067;-74
2023/05/17 07:17:58;;;;;;;13.57;3.03;;;10.10;99.90;;;;;;5100081;28;20051;-73
2023/05/17 07:20:23;;;;;;;13.70;2.88;;;10.10;99.90;;;;;;5085481;28;20040;-74
2023/05/17 07:22:49;;;;;;;9.93;2.78;;;10.10;99.90;;;;;;5117630;27;20066;-74
2023/05/17 07:25:17;;;;;;;8.80;2.28;;;10.20;99.90;;;;;;5117503;27;20076;-73
2023/05/17 07:27:43;;;;;;;12.55;2.75;;;10.20;99.90;;;;;;5081765;28;20643;-74
2023/05/17 07:30:10;;;;;;;9.65;2.53;;;10.20;99.90;;;;;;5098122;28;20083;-73
2023/05/17 07:32:36;;;;;;;11.63;2.47;;;10.20;99.90;;;;;;5084823;28;20040;-74
2023/05/17 07:35:02;;;;;;;12.15;2.80;;;10.30;99.90;;;;;;5132609;27;20039;-73
2023/05/17 07:37:28;;;;;;;12.73;2.60;;;10.50;99.90;;;;;;5082163;28;20162;-73
2023/05/17 07:39:54;;;;;;;12.73;2.63;;;10.70;99.90;;;;;;5083344;28;20048;-74
2023/05/17 07:42:20;;;;;;;12.82;3.08;;;10.80;99.90;;;;;;5084241;28;20032;-74
2023/05/17 07:44:47;;;;;;;12.02;2.55;;;10.90;99.90;;;;;;5099131;28;20035;-72
2023/05/17 07:47:13;;;;;;;12.02;3.20;;;10.90;99.80;;;;;;5083883;28;20413;-73
2023/05/17 07:49:39;;;;;;;11.18;2.83;;;11.00;98.20;;;;;;5113177;27;20097;-74
2023/05/17 07:52:05;;;;;;;15.43;2.97;;;11.10;96.40;;;;;;5080102;28;20040;-73
2023/05/17 07:54:31;;;;;;;14.45;2.70;;;11.00;97.60;;;;;;5098921;28;20582;-73
2023/05/17 07:56:58;;;;;;;11.43;2.53;;;11.10;98.10;;;;;;5099040;28;20044;-73
2023/05/17 07:59:24;;;;;;;10.05;2.47;;;11.10;96.20;;;;;;5097509;28;20668;-74
2023/05/17 08:01:51;;;;;;;12.15;2.92;;;11.10;95.50;;;;;;5082818;28;20495;-74
2023/05/17 08:04:18;;;;;;;17.00;3.10;;;11.20;96.10;;;;;;5128865;27;20032;-73
2023/05/17 08:06:47;;;;;;;13.50;2.88;;;11.20;97.60;;;;;;5094402;28;20749;-74
2023/05/17 08:09:15;;;;;;;12.68;2.97;;;11.20;97.70;;;;;;5098478;27;20073;-73
2023/05/17 08:11:44;;;;;;;10.75;2.80;;;11.20;97.10;;;;;;5100107;28;20553;-74
2023/05/17 08:14:14;;;;;;;13.27;3.22;;;11.00;96.80;;;;;;5083744;28;20576;-73
2023/05/17 08:16:45;;;;;;;15.68;3.45;;;11.00;96.60;;;;;;5114389;27;20035;-77
2023/05/17 08:19:12;;;;;;;16.60;3.42;;;10.90;97.10;;;;;;5080431;28;20047;-73
2023/05/17 08:21:41;;;;;;;12.52;3.25;;;10.80;98.70;;;;;;5100695;28;20042;-73
2023/05/17 08:24:08;;;;;;;14.27;3.15;;;10.90;99.30;;;;;;5101555;28;20095;-73
2023/05/17 08:26:34;;;;;;;15.68;3.38;;;11.00;99.00;;;;;;5093398;28;20665;-73
2023/05/17 08:29:01;;;;;;;10.80;3.03;;;11.10;98.70;;;;;;5078432;28;20056;-72
2023/05/17 08:31:27;;;;;;;14.88;3.05;;;11.20;99.30;;;;;;5098788;28;20953;-73
2023/05/17 08:33:56;;;;;;;13.52;3.13;;;11.40;99.90;;;;;;5068642;28;20542;-72
2023/05/17 08:36:22;;;;;;;11.60;2.65;;;11.50;99.30;;;;;;5096420;28;20050;-73
2023/05/17 08:38:48;;;;;;;11.70;2.97;;;11.50;97.90;;;;;;5112768;27;20032;-72
2023/05/17 08:41:13;;;;;;;13.73;2.92;;;11.50;96.60;;;;;;5067349;28;20128;-73
2023/05/17 08:43:40;;;;;;;12.43;3.15;;;11.30;96.60;;;;;;5099485;28;20080;-73
2023/05/17 08:46:08;;;;;;;11.35;2.88;;;11.30;96.30;;;;;;5063224;28;20055;-74
2023/05/17 08:48:40;;;;;;;13.25;3.22;;;11.20;97.70;;;;;;5065520;28;20039;-73
2023/05/17 08:51:09;;;;;;;13.93;3.08;;;11.30;97.30;;;;;;5115850;27;20040;-73
2023/05/17 08:53:35;;;;;;;11.80;2.58;;;11.50;97.00;;;;;;5083987;28;20046;-74
2023/05/17 08:56:04;;;;;;;13.38;2.33;;;11.60;95.80;;;;;;5098903;27;20040;-75
2023/05/17 08:58:38;;;;;;;9.65;2.65;;;11.60;93.70;;;;;;5098116;28;20577;-75
2023/05/17 09:01:06;;;;;;;13.38;2.75;;;11.60;92.50;;;;;;5115496;27;20573;-74
2023/05/17 09:03:34;;;;;;;16.52;3.80;;;11.60;90.80;;;;;;5084212;28;20079;-73
2023/05/17 09:06:00;;;;;;;14.48;2.65;;;11.50;91.10;;;;;;5096159;28;20047;-74
2023/05/17 09:08:27;;;;;;;10.00;2.40;;;11.50;91.80;;;;;;5066942;28;20050;-73
2023/05/17 09:10:55;;;;;;;11.77;2.95;;;11.50;92.50;;;;;;5083433;28;20043;-74
2023/05/17 09:13:21;;;;;;;11.50;2.90;;;11.50;92.80;;;;;;5067170;28;20063;-74
2023/05/17 09:15:48;;;;;;;9.68;2.50;;;11.50;93.30;;;;;;5080957;28;20071;-73
2023/05/17 09:18:14;;;;;;;8.48;2.25;;;11.60;93.80;;;;;;5062186;28;20036;-75
2023/05/17 09:20:40;;;;;;;11.63;2.10;;;11.90;94.80;;;;;;5081579;28;20078;-74
2023/05/17 09:23:12;;;;;;;13.40;3.03;;;12.00;92.90;;;;;;5099533;28;20050;-74
2023/05/17 09:25:45;;;;;;;14.02;2.90;;;12.10;91.80;;;;;;5078527;28;20043;-73
2023/05/17 09:28:11;;;;;;;12.05;2.28;;;12.20;92.30;;;;;;5125453;27;20154;-74
2023/05/17 09:30:38;;;;;;;13.25;2.90;;;12.30;92.50;;;;;;5097421;28;20674;-73
2023/05/17 09:33:09;;;;;;;14.45;2.92;;;12.50;92.30;;;;;;5095217;28;20059;-73
2023/05/17 09:35:36;;;;;;;11.88;2.83;;;12.70;93.20;;;;;;5090633;28;20693;-75
2023/05/17 09:38:10;;;;;;;11.18;2.97;;;12.80;91.80;;;;;;5115408;27;20096;-72
2023/05/17 09:40:40;;;;;;;12.90;3.33;;;12.80;91.10;;;;;;5131299;27;20096;-74
2023/05/17 09:43:06;;;;;;;;;;;12.80;91.80;;;;;;5083016;28;20043;-74
2023/05/17 09:45:32;;;;;;;11.60;2.83;;;12.90;93.10;;;;;;5100587;28;20560;-75
2023/05/17 09:48:14;;;;;;;15.02;3.30;;;13.20;92.00;;;;;;5082197;28;20051;-74
2023/05/17 09:50:47;;;;;;;11.00;2.95;;;13.20;90.90;;;;;;5083079;28;20070;-73
2023/05/17 09:53:26;;;;;;;14.45;3.00;;;13.10;90.30;;;;;;5100879;28;20043;-74
2023/05/17 09:55:53;;;;;;;9.77;2.28;;;12.90;90.10;;;;;;5082296;28;20533;-75
2023/05/17 09:58:21;;;;;;;12.18;2.40;;;12.70;84.70;;;;;;5099799;28;20043;-76
2023/05/17 10:00:54;;;;;;;11.23;2.45;;;12.50;85.60;;;;;;5081333;28;20040;-75
2023/05/17 10:03:21;;;;;;;9.50;2.45;;;12.30;87.20;;;;;;5082375;28;20051;-75
2023/05/17 10:05:51;;;;;;;10.60;2.47;;;12.30;86.50;;;;;;5078673;28;20569;-74
2023/05/17 10:08:20;;;;;;;10.25;2.35;;;12.50;90.90;;;;;;5121200;27;20696;-75
2023/05/17 10:10:48;;;;;;;11.68;2.58;;;12.90;91.60;;;;;;5120629;27;20577;-73
2023/05/17 10:13:16;;;;;;;10.07;2.40;;;13.20;88.10;;;;;;5094030;28;20413;-73
2023/05/17 10:15:43;;;;;;;8.40;2.25;;;13.20;85.50;;;;;;5111597;27;20124;-75
2023/05/17 10:18:09;;;;;;;10.07;2.67;;;13.10;85.20;;;;;;5111733;27;20047;-73
2023/05/17 10:20:36;;;;;;;12.05;2.72;;;13.00;83.50;;;;;;5075949;28;20036;-73
2023/05/17 10:23:05;;;;;;;9.05;2.17;;;13.00;84.80;;;;;;5115261;27;20032;-73
2023/05/17 10:25:31;;;;;;;8.02;1.98;;;13.00;88.60;;;;;;5100763;28;20398;-73
2023/05/17 10:27:58;;;;;;;10.02;2.10;;;13.10;86.20;;;;;;5092761;28;20059;-72
2023/05/17 10:30:26;;;;;;;9.20;2.25;;;13.10;83.10;;;;;;5090777;28;20097;-73
2023/05/17 10:32:53;;;;;;;8.52;1.90;;;12.90;82.70;;;;;;5092067;28;20580;-73
2023/05/17 10:35:19;;;;;;;7.63;1.85;;;12.80;83.30;;;;;;5113343;27;20048;-72
2023/05/17 10:37:45;;;;;;;10.18;1.90;;;12.70;84.20;;;;;;5112068;27;20067;-74
2023/05/17 10:40:16;;;;;;;8.68;2.03;;;12.90;84.80;;;;;;5095209;27;20051;-75
2023/05/17 10:42:53;;;;;;;9.15;2.13;;;12.90;82.50;;;;;;5082412;28;20048;-75
2023/05/17 10:45:24;;;;;;;7.88;1.85;;;12.90;81.00;;;;;;5119012;27;20036;-74
2023/05/17 10:47:53;;;;;;;;;;;12.80;81.10;;;;;;5082172;28;20074;-73
2023/05/17 10:50:25;;;;;;;10.50;2.10;;;12.70;80.00;;;;;;5129321;27;19950;-73
2023/05/17 10:52:54;;;;;;;10.32;2.55;;;12.60;79.90;;;;;;5127506;27;20048;-73
2023/05/17 10:55:35;;;;;;;9.40;2.10;;;12.60;83.20;;;;;;5130380;27;20056;-74
2023/05/17 10:58:14;;;;;;;7.82;1.90;;;12.80;81.40;;;;;;5072040;28;20100;-72
2023/05/17 11:00:42;;;;;;;7.78;2.50;;;12.90;78.30;;;;;;5083265;27;20460;-73
2023/05/17 11:03:12;;;;;;;7.28;2.22;;;12.90;80.50;;;;;;5087186;27;20078;-73
2023/05/17 11:05:42;;;;;;;9.02;1.58;;;13.00;78.50;;;;;;5128613;27;20071;-73
2023/05/17 11:08:16;;;;;;;8.75;2.28;;;13.20;80.20;;;;;;5107175;27;20082;-73
2023/05/17 11:11:12;;;;;;;9.80;2.42;;;13.50;82.00;;;;;;5066695;28;20048;-73
2023/05/17 11:13:53;;;;;;;9.93;2.10;;;13.60;76.10;;;;;;5087384;28;20723;-73
2023/05/17 11:16:37;;;;;;;7.22;1.73;;;13.50;75.90;;;;;;5123786;27;20130;-75
2023/05/17 11:19:10;;;;;;;8.57;2.15;;;13.30;76.40;;;;;;5068288;28;20055;-74
2023/05/17 11:21:45;;;;;;;6.90;1.73;;;13.30;80.00;;;;;;5089488;28;20040;-76
2023/05/17 11:24:27;;;;;;;8.57;2.05;;;13.50;79.20;;;;;;5058589;28;20972;-72
2023/05/17 11:26:56;;;;;;;8.75;2.05;;;13.50;75.80;;;;;;5091995;28;20048;-74
2023/05/17 11:29:27;;;;;;;7.32;2.00;;;13.40;74.20;;;;;;5129934;27;20115;-73
2023/05/17 11:31:53;;;;;;;10.63;1.95;;;13.30;75.10;;;;;;5074739;28;20861;-74
2023/05/17 11:34:23;;;;;;;7.32;1.98;;;13.40;75.90;;;;;;5079285;28;20047;-74
2023/05/17 11:36:54;;;;;;;10.15;2.05;;;13.50;75.00;;;;;;5101032;28;20132;-74
2023/05/17 11:39:22;;;;;;;9.00;2.05;;;13.60;75.50;;;;;;5102040;28;20130;-74
2023/05/17 11:41:53;;;;;;;9.73;2.05;;;13.60;75.20;;;;;;5099830;28;20092;-73
2023/05/17 11:44:30;;;;;;;8.57;2.38;;;13.50;74.60;;;;;;5088185;27;20055;-74
2023/05/17 11:47:02;;;;;;;11.02;2.60;;;13.50;75.40;;;;;;5089184;28;20044;-75
2023/05/17 11:49:31;;;;;;;8.60;2.20;;;13.40;73.90;;;;;;5120165;27;20521;-76
2023/05/17 11:51:58;;;;;;;7.53;2.00;;;13.30;74.30;;;;;;5076522;28;20075;-74
2023/05/17 11:54:25;;;;;;;8.50;2.17;;;13.40;75.00;;;;;;5063966;28;20380;-75
2023/05/17 11:56:54;;;;;;;10.82;2.60;;;13.50;74.40;;;;;;5127637;27;20180;-76
2023/05/17 11:59:21;;;;;;;9.93;2.45;;;13.50;71.90;;;;;;5120458;27;20510;-75
2023/05/17 12:01:49;;;;;;;7.40;1.80;;;13.30;74.00;;;;;;5105076;27;20046;-75
2023/05/17 12:04:24;;;;;;;11.45;2.10;;;13.30;74.10;;;;;;5127176;27;20048;-74
2023/05/17 12:06:51;;;;;;;9.85;2.33;;;13.30;77.10;;;;;;5089191;28;20051;-75
2023/05/17 12:09:17;;;;;;;9.23;2.03;;;13.40;75.10;;;;;;5091366;28;20613;-73
2023/05/17 12:11:43;;;;;;;10.95;2.20;;;13.30;74.50;;;;;;5104230;27;20116;-73
2023/05/17 12:14:09;;;;;;;7.93;1.77;;;13.30;74.00;;;;;;5093005;28;20449;-73
2023/05/17 12:16:38;;;;;;;7.65;2.10;;;13.40;76.10;;;;;;5085208;28;20694;-73
2023/05/17 12:19:03;;;;;;;8.70;2.30;;;13.40;75.60;;;;;;5081028;27;20093;-74
2023/05/17 12:21:29;;;;;;;9.98;2.30;;;13.50;78.30;;;;;;5079083;28;20079;-71
2023/05/17 12:23:56;;;;;;;10.35;2.45;;;13.70;78.50;;;;;;5077046;28;20040;-72
2023/05/17 12:26:22;;;;;;;9.48;2.38;;;13.80;75.30;;;;;;5087265;28;20051;-75
2023/05/17 12:28:56;;;;;;;13.05;2.58;;;13.60;73.70;;;;;;5126496;27;20163;-74
2023/05/17 12:31:35;;;;;;;8.65;2.13;;;13.60;77.30;;;;;;5102231;27;20552;-75
2023/05/17 12:34:03;;;;;;;10.48;2.45;;;13.70;76.40;;;;;;5097675;28;20083;-74
2023/05/17 12:36:32;;;;;;;12.80;2.60;;;13.60;73.90;;;;;;5120097;27;20078;-75
2023/05/17 12:38:58;;;;;;;8.95;2.25;;;13.40;73.40;;;;;;5092939;28;20055;-77
2023/05/17 12:41:25;;;;;;;12.27;3.15;;;13.20;74.80;;;;;;5071970;28;20059;-78
2023/05/17 12:43:54;;;;;;;8.80;2.40;;;13.20;76.20;;;;;;5074191;28;20098;-76
2023/05/17 12:46:22;;;;;;;10.45;2.10;;;13.20;76.40;;;;;;5077277;28;20048;-74
2023/05/17 12:48:50;;;;;;;9.05;2.35;;;13.30;76.30;;;;;;5109399;27;20119;-79
2023/05/17 12:51:18;;;;;;;9.52;2.17;;;13.40;72.70;;;;;;5110443;27;20055;-77